Time;durP1;ratioP1;P1;durP2;ratioP2;P2;SDS_P1;SDS_P2;PMS_P1;PMS_P2;Temp;Humidity;BMP_temperature;BMP_pressure;BME280_temperature;BME280_humidity;BME280_pressure;Samples;Min_cycle;Max_cycle;Signal;HPM_P1;HPM_P2
2021/10/28 00:13:07;;;;;;;44.70;24.45;;;9.50;99.90;;;;;;5018045;28;20040;-58
2021/10/28 00:15:36;;;;;;;41.95;22.70;;;9.50;99.90;;;;;;5023379;28;20045;-58
2021/10/28 00:20:34;;;;;;;38.50;22.58;;;9.50;99.90;;;;;;5020286;28;20026;-58
2021/10/28 00:23:02;;;;;;;43.92;23.33;;;9.50;99.90;;;;;;5024150;28;20072;-59
2021/10/28 00:25:28;;;;;;;48.53;23.58;;;9.60;99.90;;;;;;5007735;28;20039;-59
2021/10/28 00:27:54;;;;;;;46.72;22.75;;;9.60;99.90;;;;;;5023033;28;20026;-59
2021/10/28 00:30:20;;;;;;;42.72;22.55;;;9.50;99.90;;;;;;5025635;28;20041;-58
2021/10/28 00:32:46;;;;;;;41.65;21.98;;;9.60;99.90;;;;;;5028290;28;20036;-58
2021/10/28 00:35:13;;;;;;;43.47;22.85;;;9.60;99.90;;;;;;5027503;28;20030;-57
2021/10/28 00:37:39;;;;;;;42.83;22.60;;;9.60;99.90;;;;;;5026465;28;20064;-58
2021/10/28 00:40:07;;;;;;;37.72;21.08;;;9.60;99.90;;;;;;5024068;28;20056;-59
2021/10/28 00:42:33;;;;;;;43.20;22.77;;;9.60;99.90;;;;;;5009541;28;20068;-58
2021/10/28 00:44:59;;;;;;;44.08;23.48;;;9.60;99.90;;;;;;5023129;28;20049;-58
2021/10/28 00:47:25;;;;;;;40.67;22.20;;;9.60;99.90;;;;;;5022095;28;20431;-58
2021/10/28 00:49:51;;;;;;;43.78;23.77;;;9.60;99.90;;;;;;4987928;28;20034;-59
2021/10/28 00:52:17;;;;;;;42.08;22.42;;;9.60;99.90;;;;;;5015470;28;20034;-58
2021/10/28 00:54:43;;;;;;;43.75;22.90;;;9.70;99.90;;;;;;5028893;28;20030;-60
2021/10/28 00:57:10;;;;;;;40.85;22.10;;;9.60;99.90;;;;;;5018420;28;20436;-59
2021/10/28 00:59:36;;;;;;;44.83;22.95;;;9.70;99.90;;;;;;5028044;28;20128;-60
2021/10/28 01:02:02;;;;;;;44.50;22.70;;;9.60;99.90;;;;;;5022890;28;20104;-59
2021/10/28 01:04:27;;;;;;;43.53;23.15;;;9.60;99.90;;;;;;5021709;28;20026;-56
2021/10/28 01:06:54;;;;;;;49.85;24.13;;;9.60;99.90;;;;;;5024369;28;20034;-59
2021/10/28 01:09:23;;;;;;;45.60;21.92;;;9.60;99.90;;;;;;5014352;28;20026;-58
2021/10/28 01:11:51;;;;;;;42.97;21.20;;;9.60;99.90;;;;;;5021721;28;20069;-57
2021/10/28 01:14:17;;;;;;;43.72;22.30;;;9.60;99.90;;;;;;5026023;28;20108;-59
2021/10/28 01:16:42;;;;;;;41.55;21.48;;;9.60;99.90;;;;;;5023754;28;20157;-56
2021/10/28 01:19:08;;;;;;;46.55;22.45;;;9.60;99.90;;;;;;5023024;28;20053;-55
2021/10/28 01:21:34;;;;;;;42.63;22.73;;;9.60;99.90;;;;;;5027845;28;20030;-57
2021/10/28 01:23:59;;;;;;;47.38;22.48;;;9.60;99.90;;;;;;5008172;28;20549;-58
2021/10/28 01:26:25;;;;;;;42.03;21.52;;;9.60;99.90;;;;;;5022083;28;20040;-58
2021/10/28 01:29:02;;;;;;;38.17;20.73;;;9.60;99.90;;;;;;5010454;28;20045;-58
2021/10/28 01:31:30;;;;;;;43.88;20.35;;;9.60;99.90;;;;;;5026754;28;20029;-58
2021/10/28 01:33:58;;;;;;;44.25;22.20;;;9.60;99.90;;;;;;5019162;28;20091;-58
2021/10/28 01:36:25;;;;;;;46.47;22.95;;;9.60;99.90;;;;;;5028821;28;20017;-58
2021/10/28 01:38:53;;;;;;;46.72;23.00;;;9.60;99.90;;;;;;5017148;28;20040;-58
2021/10/28 01:41:19;;;;;;;44.47;21.77;;;9.50;99.90;;;;;;5016555;28;20212;-57
2021/10/28 01:43:45;;;;;;;48.30;21.92;;;9.50;99.90;;;;;;5018730;28;20541;-58
2021/10/28 01:46:11;;;;;;;50.60;23.15;;;9.50;99.90;;;;;;5018650;28;20030;-58
2021/10/28 01:48:41;;;;;;;42.38;21.52;;;9.50;99.90;;;;;;5019157;28;20025;-56
2021/10/28 01:51:11;;;;;;;50.13;22.67;;;9.50;99.90;;;;;;5026040;28;20033;-57
2021/10/28 01:53:38;;;;;;;49.85;23.27;;;9.50;99.90;;;;;;5023359;28;20245;-56
2021/10/28 01:56:08;;;;;;;53.97;23.20;;;9.40;99.90;;;;;;5023236;28;20112;-58
2021/10/28 01:58:34;;;;;;;52.63;25.02;;;9.50;99.90;;;;;;5022158;28;20112;-58
2021/10/28 02:01:00;;;;;;;50.38;22.98;;;9.50;99.90;;;;;;5022568;28;20029;-58
2021/10/28 02:03:26;;;;;;;50.40;23.23;;;9.40;99.90;;;;;;5013881;28;20021;-58
2021/10/28 02:05:53;;;;;;;55.80;24.20;;;9.50;99.90;;;;;;5018904;28;20109;-56
2021/10/28 02:08:19;;;;;;;57.10;25.17;;;9.40;99.90;;;;;;5021799;28;20033;-58
2021/10/28 02:10:45;;;;;;;58.53;25.00;;;9.40;99.90;;;;;;5015447;28;20030;-58
2021/10/28 02:13:11;;;;;;;55.00;24.33;;;9.40;99.90;;;;;;5021747;28;20687;-56
2021/10/28 02:15:36;;;;;;;60.80;26.15;;;9.40;99.90;;;;;;5027795;28;20063;-58
2021/10/28 02:18:02;;;;;;;59.10;24.27;;;9.30;99.90;;;;;;5012689;28;20117;-57
2021/10/28 02:20:28;;;;;;;55.85;23.63;;;9.20;99.90;;;;;;5014809;28;20099;-58
2021/10/28 02:22:53;;;;;;;62.63;26.48;;;9.10;99.90;;;;;;5028598;28;20033;-59
2021/10/28 02:25:19;;;;;;;66.68;25.30;;;9.10;99.90;;;;;;5003987;28;20045;-56
2021/10/28 02:27:46;;;;;;;66.10;24.90;;;9.10;99.90;;;;;;5014513;28;20105;-57
2021/10/28 02:30:14;;;;;;;61.60;24.92;;;9.10;99.90;;;;;;5010976;28;20048;-59
2021/10/28 02:32:40;;;;;;;64.85;26.73;;;9.00;99.90;;;;;;5017876;28;20033;-58
2021/10/28 02:35:06;;;;;;;69.05;25.95;;;9.00;99.90;;;;;;5011127;28;20029;-58
2021/10/28 02:37:32;;;;;;;64.90;24.92;;;9.00;99.90;;;;;;5015987;28;20022;-57
2021/10/28 02:39:58;;;;;;;61.75;24.30;;;9.00;99.90;;;;;;5027911;28;20025;-58
2021/10/28 02:42:24;;;;;;;67.85;25.38;;;9.10;99.90;;;;;;5018716;28;20061;-59
2021/10/28 02:44:49;;;;;;;74.90;26.73;;;9.10;99.90;;;;;;5023832;28;20067;-58
2021/10/28 02:47:15;;;;;;;73.25;26.30;;;9.10;99.90;;;;;;5028902;28;20029;-58
2021/10/28 02:49:41;;;;;;;79.00;26.58;;;9.10;99.90;;;;;;5015715;28;20030;-60
2021/10/28 02:52:07;;;;;;;80.82;28.42;;;9.10;99.90;;;;;;5024699;28;20692;-60
2021/10/28 02:54:34;;;;;;;74.68;25.75;;;9.10;99.90;;;;;;5014506;28;20046;-58
2021/10/28 02:57:00;;;;;;;79.28;27.42;;;9.10;99.90;;;;;;5026572;28;20065;-60
2021/10/28 02:59:26;;;;;;;72.25;25.88;;;9.10;99.90;;;;;;5017874;28;20030;-56
2021/10/28 03:01:54;;;;;;;80.53;27.45;;;9.20;99.90;;;;;;5011189;28;20037;-58
2021/10/28 03:04:22;;;;;;;76.57;27.35;;;9.10;99.90;;;;;;5013079;28;20029;-59
2021/10/28 03:06:49;;;;;;;73.43;25.92;;;9.20;99.90;;;;;;5027914;28;20032;-58
2021/10/28 03:09:19;;;;;;;84.63;26.88;;;9.10;99.90;;;;;;5023014;28;20054;-58
2021/10/28 03:11:47;;;;;;;69.03;25.88;;;9.10;99.90;;;;;;5012724;28;20036;-58
2021/10/28 03:14:16;;;;;;;79.15;28.55;;;9.10;99.90;;;;;;5027627;28;20033;-57
2021/10/28 03:27:14;;;;;;;74.15;27.02;;;9.20;99.90;;;;;;5020703;28;20348;-58
2021/10/28 03:29:39;;;;;;;76.00;29.35;;;9.10;99.90;;;;;;5016427;28;20117;-59
2021/10/28 03:32:06;;;;;;;76.13;29.10;;;9.10;99.90;;;;;;5018178;28;20037;-57
2021/10/28 03:34:31;;;;;;;84.35;30.48;;;9.10;99.90;;;;;;5018563;28;20103;-59
2021/10/28 03:37:07;;;;;;;71.57;27.90;;;9.10;99.90;;;;;;5028619;28;20083;-59
2021/10/28 03:50:26;;;;;;;71.38;28.48;;;9.10;99.90;;;;;;5020507;28;20060;-59
2021/10/28 04:00:59;;;;;;;62.22;26.38;;;8.70;99.90;;;;;;5020544;28;20037;-57
2021/10/28 04:16:27;;;;;;;;;;;8.60;99.90;;;;;;5017730;28;20047;-57
2021/10/28 04:18:10;;;;;;;56.60;25.67;;;8.40;99.90;;;;;;5011957;28;20538;-58
2021/10/28 04:30:43;;;;;;;50.30;24.97;;;8.30;99.90;;;;;;5022214;28;19955;-55
2021/10/28 04:33:08;;;;;;;54.30;25.63;;;8.30;99.90;;;;;;5015838;28;20033;-60
2021/10/28 04:35:34;;;;;;;52.67;24.25;;;8.30;99.90;;;;;;5018268;28;20503;-59
2021/10/28 04:37:59;;;;;;;50.00;24.85;;;8.30;99.90;;;;;;5010694;28;20071;-59
2021/10/28 04:40:25;;;;;;;45.63;22.92;;;8.30;99.90;;;;;;5013546;28;20149;-57
2021/10/28 04:42:50;;;;;;;61.28;25.60;;;8.20;99.90;;;;;;5021413;28;20108;-60
2021/10/28 04:45:16;;;;;;;54.42;24.58;;;8.20;99.90;;;;;;5029258;28;20029;-58
2021/10/28 04:47:42;;;;;;;48.00;24.33;;;8.20;99.90;;;;;;5014752;28;20033;-59
2021/10/28 04:50:08;;;;;;;48.58;23.45;;;8.20;99.90;;;;;;5020833;28;20096;-58
2021/10/28 04:52:34;;;;;;;48.40;23.77;;;8.20;99.90;;;;;;5015998;28;20117;-59
2021/10/28 04:54:59;;;;;;;51.22;23.38;;;8.10;99.90;;;;;;5023162;28;20124;-58
2021/10/28 04:57:25;;;;;;;48.75;23.23;;;8.10;99.90;;;;;;5017340;28;20061;-60
2021/10/28 04:59:50;;;;;;;48.10;24.48;;;8.10;99.90;;;;;;5022709;28;20041;-59
2021/10/28 05:02:16;;;;;;;49.58;23.88;;;8.10;99.90;;;;;;5030160;23;20077;-59
2021/10/28 05:04:42;;;;;;;47.17;24.38;;;8.10;99.90;;;;;;5003641;28;20022;-59
2021/10/28 05:07:07;;;;;;;43.33;21.83;;;8.10;99.90;;;;;;5008748;28;20049;-58
2021/10/28 05:09:33;;;;;;;48.33;22.55;;;8.00;99.90;;;;;;5007562;28;20435;-59
2021/10/28 05:11:59;;;;;;;41.63;22.23;;;7.90;99.90;;;;;;5019405;28;20057;-58
2021/10/28 05:14:25;;;;;;;44.88;21.52;;;7.90;99.90;;;;;;5012793;28;20026;-58
2021/10/28 05:16:56;;;;;;;43.53;21.83;;;7.90;99.90;;;;;;5021350;28;20026;-58
2021/10/28 05:19:23;;;;;;;39.40;21.73;;;7.80;99.90;;;;;;5007822;28;20104;-60
2021/10/28 05:21:49;;;;;;;47.45;22.75;;;7.70;99.90;;;;;;5010068;28;20076;-60
2021/10/28 05:24:15;;;;;;;51.72;23.98;;;7.70;99.90;;;;;;5010497;28;20034;-60
2021/10/28 05:26:40;;;;;;;53.00;24.00;;;7.70;99.90;;;;;;4993816;28;20126;-60
2021/10/28 05:29:06;;;;;;;47.33;23.80;;;7.70;99.90;;;;;;5009351;28;20029;-60
2021/10/28 05:31:31;;;;;;;41.53;22.25;;;7.80;99.90;;;;;;5009406;28;20026;-60
2021/10/28 05:33:57;;;;;;;48.00;23.88;;;7.70;99.90;;;;;;5008929;28;20056;-59
2021/10/28 05:36:23;;;;;;;45.42;23.40;;;7.70;99.90;;;;;;5013203;28;20084;-59
2021/10/28 05:38:48;;;;;;;51.35;23.83;;;7.70;99.90;;;;;;5009662;28;20494;-59
2021/10/28 05:41:14;;;;;;;58.00;23.77;;;7.60;99.90;;;;;;5009225;28;20117;-58
2021/10/28 05:43:40;;;;;;;51.53;24.92;;;7.60;99.90;;;;;;5009825;28;20022;-60
2021/10/28 05:46:05;;;;;;;56.47;25.67;;;7.60;99.90;;;;;;5008607;28;20459;-57
2021/10/28 05:48:32;;;;;;;53.38;25.38;;;7.70;99.90;;;;;;5010138;28;20025;-59
2021/10/28 05:50:59;;;;;;;54.80;24.20;;;7.70;99.90;;;;;;5009780;28;20037;-59
2021/10/28 05:53:25;;;;;;;50.38;24.83;;;7.70;99.90;;;;;;5010335;28;20034;-60
2021/10/28 05:55:51;;;;;;;56.80;24.92;;;7.70;99.90;;;;;;4997404;28;20236;-59
2021/10/28 05:58:16;;;;;;;47.35;23.65;;;7.70;99.90;;;;;;5005691;28;20026;-59
2021/10/28 06:00:42;;;;;;;55.13;23.42;;;7.60;99.90;;;;;;5008127;28;20025;-60
2021/10/28 06:03:08;;;;;;;46.17;25.05;;;7.60;99.90;;;;;;5009762;28;20495;-60
2021/10/28 06:05:34;;;;;;;44.58;22.35;;;7.60;99.90;;;;;;5009456;28;20029;-60
2021/10/28 06:07:59;;;;;;;45.72;23.98;;;7.60;99.90;;;;;;5009590;28;20026;-60
2021/10/28 06:10:25;;;;;;;51.00;24.67;;;7.60;99.90;;;;;;5017693;28;20049;-59
2021/10/28 06:12:58;;;;;;;43.03;23.13;;;7.60;99.90;;;;;;5011579;28;20033;-60
2021/10/28 06:15:23;;;;;;;48.35;22.92;;;7.60;99.90;;;;;;5007706;28;20034;-60
2021/10/28 06:17:58;;;;;;;42.85;21.67;;;7.60;99.90;;;;;;5008762;28;20391;-60
2021/10/28 06:20:24;;;;;;;46.70;21.25;;;7.60;99.90;;;;;;5009536;28;20118;-59
2021/10/28 06:22:52;;;;;;;47.35;23.63;;;7.50;99.90;;;;;;5010409;28;20124;-60
2021/10/28 06:25:19;;;;;;;44.45;22.80;;;7.60;99.90;;;;;;4999694;28;20038;-60
2021/10/28 06:27:45;;;;;;;42.67;22.00;;;7.60;99.90;;;;;;5007500;28;20072;-57
2021/10/28 06:30:11;;;;;;;42.00;21.50;;;7.60;99.90;;;;;;5009144;28;20022;-59
2021/10/28 06:33:08;;;;;;;48.22;23.10;;;7.60;99.90;;;;;;5008854;28;20076;-60
2021/10/28 06:35:37;;;;;;;43.05;21.95;;;7.60;99.90;;;;;;5008884;28;20073;-59
2021/10/28 06:38:04;;;;;;;40.30;20.55;;;7.60;99.90;;;;;;5009374;28;20030;-61
2021/10/28 06:40:30;;;;;;;44.78;22.15;;;7.60;99.90;;;;;;5008325;28;20026;-58
2021/10/28 06:42:55;;;;;;;37.60;21.65;;;7.60;99.90;;;;;;5009130;28;20025;-61
2021/10/28 06:45:22;;;;;;;38.85;20.83;;;7.60;99.90;;;;;;5009179;28;20029;-61
2021/10/28 06:47:47;;;;;;;44.03;21.75;;;7.60;99.90;;;;;;5009710;28;20630;-60
2021/10/28 06:50:15;;;;;;;39.00;22.02;;;7.60;99.90;;;;;;5011056;28;20034;-61
2021/10/28 07:03:30;;;;;;;44.30;21.40;;;7.90;99.90;;;;;;5016132;28;19928;-60
2021/10/28 07:06:03;;;;;;;42.13;22.55;;;8.00;99.90;;;;;;5009403;28;20228;-61
2021/10/28 07:08:29;;;;;;;43.47;21.60;;;8.00;99.90;;;;;;5008379;28;20022;-61
2021/10/28 07:10:57;;;;;;;44.17;22.40;;;8.00;99.90;;;;;;5012489;28;20034;-62
2021/10/28 07:13:26;;;;;;;35.90;20.45;;;8.10;99.90;;;;;;5009263;28;20025;-62
2021/10/28 07:15:56;;;;;;;33.83;21.17;;;8.10;99.90;;;;;;5009422;28;20034;-62
2021/10/28 07:18:42;;;;;;;36.47;21.20;;;8.20;99.90;;;;;;5007918;28;20431;-61
2021/10/28 07:21:26;;;;;;;37.33;21.25;;;8.30;99.90;;;;;;5002324;28;20022;-61
2021/10/28 07:26:48;;;;;;;35.80;19.50;;;8.30;99.90;;;;;;4989808;28;20061;-60
2021/10/28 08:05:04;;;;;;;;;;;9.30;99.90;;;;;;5009094;28;20040;-60
2021/10/28 08:18:50;;;;;;;27.85;18.48;;;9.70;99.90;;;;;;5011535;28;20029;-59
2021/10/28 08:21:25;;;;;;;33.35;19.73;;;9.80;99.90;;;;;;5013389;28;20046;-59
2021/10/28 08:24:04;;;;;;;27.63;18.65;;;9.80;99.90;;;;;;5009309;28;20092;-60
2021/10/28 08:29:26;;;;;;;;;;;10.00;99.90;;;;;;5009850;28;20033;-61
2021/10/28 08:31:54;;;;;;;29.10;18.88;;;10.00;99.90;;;;;;5011733;28;20007;-62
2021/10/28 08:34:28;;;;;;;28.02;17.35;;;10.10;99.90;;;;;;5008159;28;20510;-60
2021/10/28 08:36:56;;;;;;;28.75;17.83;;;10.10;99.90;;;;;;5012535;28;20483;-62
2021/10/28 08:39:22;;;;;;;28.35;17.42;;;10.20;99.90;;;;;;5010446;28;20399;-61
2021/10/28 08:41:48;;;;;;;28.48;17.00;;;10.20;99.90;;;;;;5016772;28;20029;-60
2021/10/28 08:44:18;;;;;;;22.05;15.65;;;10.30;99.90;;;;;;5010952;28;20022;-61
2021/10/28 08:46:49;;;;;;;26.23;16.23;;;10.30;99.90;;;;;;5011092;28;20057;-61
2021/10/28 08:49:18;;;;;;;23.90;15.75;;;10.40;99.90;;;;;;5010298;28;20479;-62
2021/10/28 09:00:20;;;;;;;24.98;16.35;;;10.50;99.90;;;;;;5008413;28;20037;-63
2021/10/28 09:25:41;;;;;;;19.67;13.35;;;12.80;99.90;;;;;;5009889;28;20587;-60
2021/10/28 09:28:28;;;;;;;17.92;13.40;;;13.00;99.90;;;;;;4992954;28;20084;-60
2021/10/28 09:31:16;;;;;;;15.82;12.23;;;13.40;99.90;;;;;;5011287;28;20450;-60
2021/10/28 09:47:34;;;;;;;16.88;12.48;;;14.30;99.90;;;;;;5008873;28;20032;-59
2021/10/28 09:50:30;;;;;;;17.60;12.10;;;14.10;99.90;;;;;;5014843;28;20101;-59
2021/10/28 09:53:23;;;;;;;20.90;13.45;;;14.10;99.90;;;;;;5005670;28;20530;-60
2021/10/28 09:58:43;;;;;;;17.65;12.65;;;13.70;99.90;;;;;;5008905;28;20033;-61
2021/10/28 10:01:32;;;;;;;17.53;13.07;;;13.80;99.90;;;;;;5004919;28;20514;-57
2021/10/28 10:04:01;;;;;;;22.52;13.25;;;13.80;99.90;;;;;;4999738;28;20281;-61
2021/10/28 10:06:27;;;;;;;18.73;13.27;;;13.80;99.90;;;;;;5006359;28;20071;-61
2021/10/28 10:08:55;;;;;;;46.05;14.55;;;13.90;99.90;;;;;;5008864;28;20041;-60
2021/10/28 10:11:25;;;;;;;18.00;13.52;;;13.90;99.90;;;;;;5010879;28;20076;-60
2021/10/28 10:13:51;;;;;;;20.75;14.23;;;13.80;99.90;;;;;;5010052;28;20091;-60
2021/10/28 10:16:17;;;;;;;21.67;13.98;;;13.90;99.90;;;;;;5010076;28;20118;-61
2021/10/28 10:18:48;;;;;;;18.50;14.45;;;14.00;99.90;;;;;;5008392;28;20097;-58
2021/10/28 10:21:37;;;;;;;18.38;12.38;;;14.10;99.90;;;;;;5006522;28;20470;-59
2021/10/28 11:33:42;;;;;;;19.85;12.77;;;14.20;99.90;;;;;;5008603;28;20080;-60
2021/10/28 12:13:52;;;;;;;17.63;12.45;;;14.40;99.90;;;;;;5017477;28;20088;-59
2021/10/28 12:24:16;;;;;;;24.08;12.95;;;14.40;99.90;;;;;;5011132;28;20117;-60
2021/10/28 12:52:28;;;;;;;22.85;13.15;;;14.30;99.90;;;;;;5011618;28;20041;-59
2021/10/28 12:55:53;;;;;;;21.05;14.60;;;14.40;99.90;;;;;;5009810;28;20512;-60
2021/10/28 13:50:00;;;;;;;24.45;16.60;;;13.90;99.90;;;;;;5018666;28;19955;-61
2021/10/28 13:52:50;;;;;;;22.50;15.15;;;13.90;99.90;;;;;;5027970;28;20029;-61
2021/10/28 13:58:16;;;;;;;;;;;13.80;99.90;;;;;;5017551;28;20649;-61
2021/10/28 15:37:41;;;;;;;34.13;21.35;;;11.50;99.90;;;;;;5017703;28;20039;-60
2021/10/28 15:40:17;;;;;;;36.97;22.42;;;11.40;99.90;;;;;;5025129;28;20108;-59
2021/10/28 15:48:39;;;;;;;39.42;23.35;;;11.20;99.90;;;;;;5020680;28;20057;-61
2021/10/28 16:01:45;;;;;;;39.08;22.27;;;10.90;99.90;;;;;;5023469;28;20390;-61
2021/10/28 16:23:20;;;;;;;38.25;23.85;;;10.30;99.90;;;;;;5024608;28;20052;-61
2021/10/28 16:25:46;;;;;;;42.20;25.80;;;10.20;99.90;;;;;;5022023;28;20395;-61
2021/10/28 16:28:16;;;;;;;44.92;27.23;;;10.10;99.90;;;;;;5007104;28;22345;-60
2021/10/28 16:30:44;;;;;;;47.55;27.75;;;10.00;99.90;;;;;;5016258;28;20053;-59
2021/10/28 16:33:09;;;;;;;44.75;26.27;;;9.90;99.90;;;;;;5019299;28;20084;-60
2021/10/28 16:35:35;;;;;;;47.40;27.15;;;9.90;99.90;;;;;;5022248;28;20025;-60
2021/10/28 16:38:03;;;;;;;41.50;25.38;;;9.90;99.90;;;;;;5013309;28;20087;-60
2021/10/28 16:40:29;;;;;;;46.83;26.23;;;9.90;99.90;;;;;;5016850;28;20546;-60
2021/10/28 16:42:55;;;;;;;52.85;27.23;;;9.80;99.90;;;;;;5014296;28;20122;-60
2021/10/28 16:45:21;;;;;;;46.80;27.25;;;9.70;99.90;;;;;;5012156;28;20387;-60
2021/10/28 16:47:46;;;;;;;53.75;29.05;;;9.70;99.90;;;;;;5031943;28;20028;-60
2021/10/28 16:50:13;;;;;;;48.35;27.35;;;9.70;99.90;;;;;;5015298;28;20034;-59
2021/10/28 16:52:40;;;;;;;49.88;28.58;;;9.70;99.90;;;;;;5025926;28;20029;-59
2021/10/28 16:55:06;;;;;;;48.20;28.52;;;9.60;99.90;;;;;;5023686;28;20063;-61
2021/10/28 16:57:31;;;;;;;52.80;28.63;;;9.60;99.90;;;;;;5019676;28;20049;-60
2021/10/28 16:59:57;;;;;;;50.28;29.58;;;9.50;99.90;;;;;;5027829;28;20029;-61
2021/10/28 17:02:22;;;;;;;55.05;30.40;;;9.40;99.90;;;;;;5024788;28;20017;-61
2021/10/28 17:04:48;;;;;;;54.13;29.35;;;9.40;99.90;;;;;;5024600;28;20040;-61
2021/10/28 17:07:14;;;;;;;57.33;31.65;;;9.30;99.90;;;;;;5023360;28;20018;-60
2021/10/28 17:09:40;;;;;;;56.38;31.77;;;9.30;99.90;;;;;;5020981;28;20073;-61
2021/10/28 17:12:05;;;;;;;59.38;31.77;;;9.30;99.90;;;;;;5023948;28;20029;-60
2021/10/28 17:14:31;;;;;;;53.90;30.55;;;9.20;99.90;;;;;;5025070;28;20493;-61
2021/10/28 17:16:57;;;;;;;60.25;32.17;;;9.20;99.90;;;;;;5021696;28;20061;-60
2021/10/28 17:19:23;;;;;;;55.80;31.33;;;9.10;99.90;;;;;;5023140;28;20033;-61
2021/10/28 17:21:49;;;;;;;62.72;32.72;;;9.10;99.90;;;;;;5023459;28;20029;-61
2021/10/28 17:24:25;;;;;;;61.63;32.67;;;9.10;99.90;;;;;;5028222;28;20391;-61
2021/10/28 17:26:50;;;;;;;62.80;34.65;;;9.00;99.90;;;;;;5025847;28;20022;-60
2021/10/28 17:29:16;;;;;;;66.60;33.92;;;8.90;99.90;;;;;;5015262;28;20045;-60
2021/10/28 17:31:42;;;;;;;64.32;33.92;;;8.90;99.90;;;;;;5023374;28;20021;-59
2021/10/28 17:34:07;;;;;;;66.88;36.08;;;8.90;99.90;;;;;;5024969;28;20032;-60
2021/10/28 17:36:33;;;;;;;64.93;34.40;;;8.80;99.90;;;;;;5010938;28;20034;-60
2021/10/28 17:38:59;;;;;;;65.80;34.25;;;8.80;99.90;;;;;;5016347;28;20022;-59
2021/10/28 17:41:26;;;;;;;62.00;33.13;;;8.80;99.90;;;;;;5011157;28;20110;-61
2021/10/28 17:43:54;;;;;;;65.28;33.72;;;8.80;99.90;;;;;;5021837;28;20030;-60
2021/10/28 17:46:24;;;;;;;67.10;35.22;;;8.80;99.90;;;;;;5013455;28;20029;-60
2021/10/28 17:48:50;;;;;;;70.28;33.75;;;8.80;99.90;;;;;;5011226;28;20036;-59
2021/10/28 17:51:17;;;;;;;64.20;33.67;;;8.80;99.90;;;;;;5025895;28;20087;-60
2021/10/28 17:53:44;;;;;;;65.15;34.58;;;8.70;99.90;;;;;;5030848;28;20487;-59
2021/10/28 17:56:14;;;;;;;61.78;32.42;;;8.70;99.90;;;;;;5018026;28;20045;-59
2021/10/28 17:58:40;;;;;;;64.50;33.17;;;8.70;99.90;;;;;;5014349;28;20491;-59
2021/10/28 18:01:06;;;;;;;66.35;33.70;;;8.70;99.90;;;;;;5022561;28;20033;-61
2021/10/28 18:03:32;;;;;;;61.92;32.20;;;8.60;99.90;;;;;;5020346;28;20048;-60
2021/10/28 18:05:58;;;;;;;66.80;34.88;;;8.60;99.90;;;;;;5024384;28;20036;-58
2021/10/28 18:08:24;;;;;;;61.22;32.28;;;8.60;99.90;;;;;;5025896;28;20025;-59
2021/10/28 18:10:49;;;;;;;65.88;35.60;;;8.60;99.90;;;;;;5016199;28;20471;-59
2021/10/28 18:13:17;;;;;;;65.15;33.30;;;8.60;99.90;;;;;;5022461;28;20030;-60
2021/10/28 18:15:43;;;;;;;67.30;35.50;;;8.50;99.90;;;;;;5018251;28;20145;-60
2021/10/28 18:18:09;;;;;;;65.32;33.70;;;8.50;99.90;;;;;;5026858;28;20121;-60
2021/10/28 18:20:36;;;;;;;75.80;34.17;;;8.40;99.90;;;;;;5023859;28;20029;-59
2021/10/28 18:23:01;;;;;;;67.07;33.95;;;8.40;99.90;;;;;;5024176;28;20032;-60
2021/10/28 18:25:27;;;;;;;72.43;34.90;;;8.40;99.90;;;;;;5025654;28;20491;-60
2021/10/28 18:27:56;;;;;;;77.88;36.38;;;8.30;99.90;;;;;;5029196;28;20076;-60
2021/10/28 18:30:23;;;;;;;76.40;33.80;;;8.30;99.90;;;;;;5001564;28;20042;-60
2021/10/28 18:32:49;;;;;;;78.35;35.92;;;8.20;99.90;;;;;;5013859;28;20030;-60
2021/10/28 18:35:15;;;;;;;75.55;36.03;;;8.20;99.90;;;;;;5024475;28;20116;-61
2021/10/28 18:37:42;;;;;;;83.97;37.88;;;8.20;99.90;;;;;;5010239;28;20122;-60
2021/10/28 18:40:08;;;;;;;72.07;35.03;;;8.20;99.90;;;;;;5025223;28;20036;-59
2021/10/28 18:42:34;;;;;;;67.25;33.53;;;8.20;99.90;;;;;;5011000;28;20037;-61
2021/10/28 18:45:00;;;;;;;79.60;35.67;;;8.20;99.90;;;;;;5010719;28;20117;-60
2021/10/28 18:47:26;;;;;;;76.03;36.05;;;8.20;99.90;;;;;;5011027;28;20407;-61
2021/10/28 18:49:52;;;;;;;78.55;35.83;;;8.20;99.90;;;;;;5009458;28;20076;-58
2021/10/28 18:52:18;;;;;;;73.63;34.85;;;8.20;99.90;;;;;;5009370;28;20030;-61
2021/10/28 18:54:45;;;;;;;70.53;32.88;;;8.20;99.90;;;;;;5013748;28;20388;-60
2021/10/28 18:57:12;;;;;;;70.95;32.38;;;8.10;99.90;;;;;;5024525;28;20038;-60
2021/10/28 18:59:40;;;;;;;75.63;35.95;;;8.10;99.90;;;;;;5030217;28;20033;-59
2021/10/28 19:02:06;;;;;;;80.28;34.67;;;8.10;99.90;;;;;;5021962;28;20411;-61
2021/10/28 19:04:32;;;;;;;72.68;33.67;;;8.10;99.90;;;;;;5024119;28;20034;-60
2021/10/28 19:06:57;;;;;;;70.38;33.83;;;8.00;99.90;;;;;;5017397;28;20464;-59
2021/10/28 19:09:23;;;;;;;81.22;36.97;;;8.00;99.90;;;;;;5023561;28;20025;-61
2021/10/28 19:11:49;;;;;;;73.22;33.85;;;8.00;99.90;;;;;;5024159;28;20042;-59
2021/10/28 19:14:14;;;;;;;72.80;33.42;;;8.10;99.90;;;;;;5030004;28;20510;-61
2021/10/28 19:16:40;;;;;;;69.55;34.47;;;8.00;99.90;;;;;;5026606;28;20029;-60
2021/10/28 19:19:07;;;;;;;72.10;34.50;;;8.00;99.90;;;;;;5014093;28;20038;-60
2021/10/28 19:21:33;;;;;;;69.80;32.92;;;8.00;99.90;;;;;;5016482;28;20049;-60
2021/10/28 19:23:58;;;;;;;72.18;33.08;;;8.00;99.90;;;;;;5016044;28;20500;-61
2021/10/28 19:26:25;;;;;;;70.40;32.80;;;8.00;99.90;;;;;;5023927;28;20037;-61
2021/10/28 19:28:51;;;;;;;70.75;32.92;;;8.00;99.90;;;;;;5013046;28;20125;-61
2021/10/28 19:31:49;;;;;;;73.20;36.30;;;7.90;99.90;;;;;;5028365;28;20041;-60
2021/10/28 19:34:04;;;;;;;71.97;33.33;;;7.90;99.90;;;;;;5020642;28;20057;-61
2021/10/28 19:36:40;;;;;;;74.15;34.40;;;7.90;99.90;;;;;;5025820;28;20033;-61
2021/10/28 19:39:21;;;;;;;74.55;32.60;;;7.90;99.90;;;;;;5019613;28;20049;-61
2021/10/28 19:47:15;;;;;;;74.03;33.13;;;7.80;99.90;;;;;;5033503;22;20068;-60
2021/10/28 19:49:46;;;;;;;69.05;33.72;;;7.80;99.90;;;;;;5008035;28;20653;-59
2021/10/28 19:52:14;;;;;;;63.80;32.72;;;7.80;99.90;;;;;;5005868;28;20045;-59
2021/10/28 19:54:46;;;;;;;68.78;33.45;;;7.80;99.90;;;;;;5004637;28;20038;-59
2021/10/28 19:57:20;;;;;;;72.60;34.00;;;7.80;99.90;;;;;;5007105;28;20488;-61
2021/10/28 19:59:56;;;;;;;64.63;30.20;;;7.80;99.90;;;;;;5004673;28;20083;-59
2021/10/28 20:03:06;;;;;;;73.25;32.63;;;7.80;99.90;;;;;;5007614;28;20120;-58
2021/10/28 20:21:11;;;;;;;67.57;31.33;;;7.70;99.90;;;;;;5011741;28;20080;-52
2021/10/28 20:23:37;;;;;;;69.28;33.97;;;7.70;99.90;;;;;;5012475;28;20032;-55
2021/10/28 20:26:02;;;;;;;72.80;34.42;;;7.70;99.90;;;;;;5019743;28;20021;-56
2021/10/28 20:28:29;;;;;;;70.38;32.50;;;7.60;99.90;;;;;;5000815;28;20017;-59
2021/10/28 20:30:58;;;;;;;71.40;32.67;;;7.60;99.90;;;;;;5020768;28;20068;-58
2021/10/28 20:33:27;;;;;;;71.10;32.08;;;7.60;99.90;;;;;;5019965;28;20026;-59
2021/10/28 20:36:08;;;;;;;73.18;33.25;;;7.60;99.90;;;;;;5009775;28;20037;-59
2021/10/28 20:38:34;;;;;;;70.22;34.05;;;7.60;99.90;;;;;;5011469;28;20285;-60
2021/10/28 20:41:00;;;;;;;64.93;32.75;;;7.60;99.90;;;;;;5011172;28;20467;-57
2021/10/28 20:43:25;;;;;;;68.80;31.23;;;7.60;99.90;;;;;;4994883;28;20045;-57
2021/10/28 20:45:51;;;;;;;66.60;30.80;;;7.60;99.90;;;;;;5008974;28;20555;-59
2021/10/28 20:48:17;;;;;;;71.45;32.72;;;7.60;99.90;;;;;;5012359;28;20026;-60
2021/10/28 20:50:42;;;;;;;64.95;31.67;;;7.60;99.90;;;;;;5011994;28;20036;-59
2021/10/28 20:53:08;;;;;;;66.63;32.28;;;7.60;99.90;;;;;;5012345;28;20038;-60
2021/10/28 20:55:33;;;;;;;64.65;30.83;;;7.60;99.90;;;;;;5008924;28;20116;-60
2021/10/28 20:57:59;;;;;;;68.53;31.27;;;7.50;99.90;;;;;;5011872;28;20516;-58
2021/10/28 21:00:25;;;;;;;60.40;29.48;;;7.50;99.90;;;;;;5011335;28;20034;-60
2021/10/28 21:02:52;;;;;;;63.13;30.63;;;7.50;99.90;;;;;;5011450;28;20494;-59
2021/10/28 21:05:23;;;;;;;64.10;30.90;;;7.50;99.90;;;;;;5011650;28;20105;-57
2021/10/28 21:07:53;;;;;;;65.10;30.75;;;7.50;99.90;;;;;;5011018;28;20037;-56
2021/10/28 21:10:24;;;;;;;65.03;30.77;;;7.40;99.90;;;;;;5009613;28;20026;-54
2021/10/28 21:12:50;;;;;;;63.47;29.35;;;7.40;99.90;;;;;;5009316;28;20034;-52
2021/10/28 21:15:16;;;;;;;67.70;31.35;;;7.40;99.90;;;;;;5010860;28;20041;-59
2021/10/28 21:17:42;;;;;;;65.30;30.13;;;7.40;99.90;;;;;;5008758;28;20030;-55
2021/10/28 21:20:09;;;;;;;62.42;30.13;;;7.40;99.90;;;;;;5011610;28;20034;-59
2021/10/28 21:22:35;;;;;;;63.88;30.63;;;7.40;99.90;;;;;;5010213;28;20030;-60
2021/10/28 21:25:01;;;;;;;69.82;30.88;;;7.30;99.90;;;;;;5005136;28;20026;-54
2021/10/28 21:27:27;;;;;;;65.50;30.60;;;7.30;99.90;;;;;;5009701;28;20030;-59